createdAt,value
2018-07-01T00:00:30.827Z,73.86
2018-07-01T00:01:32.220Z,73.67
2018-07-01T00:02:33.605Z,73.29
2018-07-01T00:03:35.004Z,72.81
2018-07-01T00:04:36.384Z,73.39
2018-07-01T00:05:37.770Z,72.62
2018-07-01T00:06:39.158Z,72.72
2018-07-01T00:07:40.546Z,72.53
2018-07-01T00:08:41.920Z,72.91
2018-07-01T00:09:43.313Z,72.91
2018-07-01T00:10:44.752Z,73.10
2018-07-01T00:11:46.074Z,73.58
2018-07-01T00:12:47.460Z,73.10
2018-07-01T00:13:48.842Z,73.00
2018-07-01T00:14:50.230Z,73.10
2018-07-01T00:15:51.618Z,73.67
2018-07-01T00:16:52.997Z,73.29
2018-07-01T00:17:55.238Z,73.86
2018-07-01T00:18:56.614Z,73.39
2018-07-01T00:19:58.000Z,74.34
2018-07-01T00:20:59.386Z,73.96
2018-07-01T00:22:00.771Z,74.30
2018-07-01T00:23:02.162Z,74.24
2018-07-01T00:24:03.535Z,74.44
2018-07-01T00:25:04.924Z,74.40
2018-07-01T00:26:06.307Z,73.92
2018-07-01T00:27:07.694Z,74.59
2018-07-01T00:28:09.075Z,74.59
2018-07-01T00:29:10.453Z,74.69
2018-07-01T00:30:11.840Z,74.59
2018-07-01T00:31:13.233Z,74.59
2018-07-01T00:32:14.609Z,74.59
2018-07-01T00:33:15.989Z,74.59
2018-07-01T00:34:17.376Z,74.49
2018-07-01T00:35:18.758Z,74.69
2018-07-01T00:36:20.144Z,75.45
2018-07-01T00:37:21.530Z,75.16
2018-07-01T00:38:22.920Z,75.16
2018-07-01T00:39:24.302Z,75.26
2018-07-01T00:40:25.684Z,75.16
2018-07-01T00:41:27.075Z,75.07
2018-07-01T00:42:28.456Z,75.26
2018-07-01T00:43:29.839Z,75.54
2018-07-01T00:44:31.222Z,75.83
2018-07-01T00:45:32.611Z,75.16
2018-07-01T00:46:33.994Z,75.35
2018-07-01T00:47:35.390Z,75.83
2018-07-01T00:48:36.771Z,75.93
2018-07-01T00:49:38.154Z,75.83
2018-07-01T00:50:39.531Z,75.74
2018-07-01T00:51:40.920Z,75.74
2018-07-01T00:52:42.288Z,76.31
2018-07-01T00:53:43.677Z,76.21
2018-07-01T00:54:45.068Z,76.21
2018-07-01T00:55:46.452Z,76.40
2018-07-01T00:56:48.764Z,77.26
2018-07-01T00:57:50.133Z,77.03
2018-07-01T00:58:51.521Z,77.45
2018-07-01T00:59:52.907Z,77.55
2018-07-01T01:00:54.289Z,77.13
2018-07-01T01:01:55.668Z,76.69
2018-07-01T01:02:57.054Z,77.36
2018-07-01T01:03:58.436Z,77.42
2018-07-01T01:04:59.815Z,77.70
2018-07-01T01:06:01.198Z,78.51
2018-07-01T01:07:02.578Z,78.09
2018-07-01T01:08:03.962Z,78.09
2018-07-01T01:09:05.344Z,77.99
2018-07-01T01:10:06.736Z,77.89
2018-07-01T01:11:08.109Z,78.37
2018-07-01T01:12:09.498Z,78.18
2018-07-01T01:13:10.879Z,78.18
2018-07-01T01:14:12.264Z,78.47
2018-07-01T01:15:13.650Z,78.47
2018-07-01T01:16:15.041Z,78.37
2018-07-01T01:17:16.412Z,78.37
2018-07-01T01:18:17.805Z,78.18
2018-07-01T01:19:19.185Z,77.99
2018-07-01T01:20:20.579Z,78.37
2018-07-01T01:21:21.958Z,78.85
2018-07-01T01:22:23.339Z,78.85
2018-07-01T01:23:24.715Z,78.75
2018-07-01T01:24:26.097Z,78.85
2018-07-01T01:25:27.485Z,78.66
2018-07-01T01:26:28.857Z,78.75
2018-07-01T01:27:30.245Z,79.14
2018-07-01T01:28:31.634Z,78.66
2018-07-01T01:29:33.017Z,78.66
2018-07-01T01:30:34.399Z,79.14
2018-07-01T01:31:35.786Z,79.14
2018-07-01T01:32:37.160Z,78.75
2018-07-01T01:33:39.403Z,79.23
2018-07-01T01:34:40.782Z,79.23
2018-07-01T01:35:42.173Z,79.33
2018-07-01T01:36:43.556Z,79.43
2018-07-01T01:37:44.939Z,79.61
2018-07-01T01:38:46.328Z,79.61
2018-07-01T01:39:47.712Z,79.43
2018-07-01T01:40:49.092Z,80.15
2018-07-01T01:41:50.478Z,79.90
2018-07-01T01:42:51.868Z,79.71
2018-07-01T01:43:53.254Z,79.80
2018-07-01T01:44:54.636Z,80.53
2018-07-01T01:45:56.023Z,80.33
2018-07-01T01:46:57.405Z,80.33
2018-07-01T01:47:58.791Z,80.62
2018-07-01T01:49:00.177Z,80.81
2018-07-01T01:50:01.572Z,80.91
2018-07-01T01:51:02.948Z,81.38
2018-07-01T01:52:04.334Z,81.29
2018-07-01T01:53:05.715Z,81.10
2018-07-01T01:54:07.105Z,81.86
2018-07-01T01:55:08.485Z,81.96
2018-07-01T01:56:09.865Z,82.43
2018-07-01T01:57:11.251Z,82.43
2018-07-01T01:58:12.644Z,83.01
2018-07-01T01:59:14.020Z,83.01
2018-07-01T02:00:15.404Z,83.11
2018-07-01T02:01:16.790Z,83.29
2018-07-01T02:02:18.165Z,83.29
2018-07-01T02:03:19.559Z,83.58
2018-07-01T02:04:20.940Z,83.77
2018-07-01T02:05:22.324Z,83.39
2018-07-01T02:06:23.706Z,83.67
2018-07-01T02:07:25.878Z,83.87
2018-07-01T02:08:27.266Z,83.96
2018-07-01T02:09:28.662Z,83.20
2018-07-01T02:10:30.041Z,83.67
2018-07-01T02:11:31.430Z,83.58
2018-07-01T02:12:32.795Z,83.48
2018-07-01T02:13:34.180Z,83.67
2018-07-01T02:14:35.566Z,83.77
2018-07-01T02:15:36.948Z,83.77
2018-07-01T02:16:38.332Z,83.67
2018-07-01T02:17:39.719Z,83.29
2018-07-01T02:18:41.093Z,83.11
2018-07-01T02:19:42.480Z,83.48
2018-07-01T02:20:43.860Z,83.77
2018-07-01T02:21:45.241Z,84.25
2018-07-01T02:22:46.625Z,84.06
2018-07-01T02:23:48.009Z,83.87
2018-07-01T02:24:50.320Z,84.63
2018-07-01T02:25:51.701Z,84.34
2018-07-01T02:26:53.080Z,84.82
2018-07-01T02:27:54.458Z,85.11
2018-07-01T02:28:55.843Z,85.39
2018-07-01T02:29:57.224Z,84.72
2018-07-01T02:30:58.606Z,85.11
2018-07-01T02:31:59.995Z,85.11
2018-07-01T02:33:01.368Z,85.68
2018-07-01T02:34:02.762Z,85.77
2018-07-01T02:35:04.154Z,85.21
2018-07-01T02:36:05.534Z,85.30
2018-07-01T02:37:06.918Z,85.58
2018-07-01T02:38:08.300Z,85.77
2018-07-01T02:39:09.681Z,85.58
2018-07-01T02:40:11.060Z,85.21
2018-07-01T02:41:12.444Z,85.30
2018-07-01T02:42:13.826Z,85.01
2018-07-01T02:43:15.211Z,85.21
2018-07-01T02:44:16.599Z,84.92
2018-07-01T02:45:17.985Z,85.11
2018-07-01T02:46:19.370Z,85.01
2018-07-01T02:47:20.754Z,84.82
2018-07-01T02:48:22.139Z,84.72
2018-07-01T02:49:23.518Z,84.82
2018-07-01T02:50:24.915Z,84.72
2018-07-01T02:51:26.295Z,84.53
2018-07-01T02:52:27.673Z,84.82
2018-07-01T02:53:29.064Z,84.53
2018-07-01T02:54:30.455Z,84.63
2018-07-01T02:55:31.845Z,84.44
2018-07-01T02:56:33.233Z,84.34
2018-07-01T02:57:34.622Z,84.63
2018-07-01T02:58:36.002Z,84.63
2018-07-01T02:59:38.315Z,84.82
2018-07-01T03:00:39.691Z,84.63
2018-07-01T03:01:41.075Z,84.92
2018-07-01T03:02:42.461Z,85.01
2018-07-01T03:03:43.849Z,85.11
2018-07-01T03:04:45.223Z,84.72
2018-07-01T03:05:46.668Z,84.63
2018-07-01T03:06:48.004Z,84.53
2018-07-01T03:07:49.382Z,84.44
2018-07-01T03:08:50.768Z,85.11
2018-07-01T03:09:52.838Z,84.92
2018-07-01T03:10:54.216Z,84.82
2018-07-01T03:11:55.606Z,85.25
2018-07-01T03:12:56.986Z,85.30
2018-07-01T03:13:58.371Z,85.39
2018-07-01T03:14:59.765Z,85.58
2018-07-01T03:16:01.158Z,85.45
2018-07-01T03:17:02.534Z,85.58
2018-07-01T03:18:03.929Z,85.73
2018-07-01T03:19:05.317Z,85.39
2018-07-01T03:20:06.693Z,85.77
2018-07-01T03:21:08.090Z,85.87
2018-07-01T03:22:09.481Z,85.97
2018-07-01T03:23:10.884Z,85.97
2018-07-01T03:24:12.255Z,85.87
2018-07-01T03:25:13.639Z,85.97
2018-07-01T03:26:15.024Z,85.58
2018-07-01T03:27:16.409Z,86.16
2018-07-01T03:28:17.791Z,85.58
2018-07-01T03:29:19.194Z,85.77
2018-07-01T03:30:20.589Z,85.49
2018-07-01T03:31:21.976Z,85.97
2018-07-01T03:32:23.368Z,85.77
2018-07-01T03:33:24.743Z,85.21
2018-07-01T03:34:26.132Z,84.92
2018-07-01T03:35:27.520Z,84.96
2018-07-01T03:36:28.902Z,84.34
2018-07-01T03:37:30.294Z,84.20
2018-07-01T03:38:31.668Z,84.00
2018-07-01T03:39:33.064Z,84.00
2018-07-01T03:40:34.448Z,84.00
2018-07-01T03:41:35.840Z,83.81
2018-07-01T03:42:37.232Z,83.81
2018-07-01T03:43:38.627Z,83.34
2018-07-01T03:44:40.018Z,83.24
2018-07-01T03:45:41.404Z,84.10
2018-07-01T03:46:42.788Z,83.14
2018-07-01T03:47:44.177Z,83.24
2018-07-01T03:48:45.571Z,83.43
2018-07-01T03:49:46.959Z,83.34
2018-07-01T03:50:48.337Z,83.43
2018-07-01T03:51:49.729Z,83.53
2018-07-01T03:52:51.180Z,82.81
2018-07-01T03:53:52.511Z,83.00
2018-07-01T03:54:53.897Z,82.52
2018-07-01T03:55:55.279Z,82.23
2018-07-01T03:56:56.668Z,82.71
2018-07-01T03:57:58.744Z,82.61
2018-07-01T03:58:59.389Z,82.52
2018-07-01T04:00:00.766Z,82.14
2018-07-01T04:01:02.163Z,82.32
2018-07-01T04:02:03.554Z,82.42
2018-07-01T04:03:04.938Z,82.23
2018-07-01T04:04:06.318Z,82.32
2018-07-01T04:05:07.693Z,81.95
2018-07-01T04:06:09.087Z,82.08
2018-07-01T04:07:10.481Z,82.18
2018-07-01T04:08:11.866Z,81.79
2018-07-01T04:09:13.248Z,81.51
2018-07-01T04:10:14.633Z,81.51
2018-07-01T04:11:16.023Z,81.22
2018-07-01T04:12:17.416Z,81.03
2018-07-01T04:13:18.800Z,80.50
2018-07-01T04:14:20.196Z,80.21
2018-07-01T04:15:21.591Z,80.55
2018-07-01T04:16:22.993Z,80.59
2018-07-01T04:17:24.379Z,80.69
2018-07-01T04:18:25.755Z,79.83
2018-07-01T04:19:27.158Z,79.54
2018-07-01T04:20:28.537Z,79.73
2018-07-01T04:21:29.931Z,78.97
2018-07-01T04:22:31.324Z,78.68
2018-07-01T04:23:32.707Z,78.63
2018-07-01T04:24:34.103Z,78.34
2018-07-01T04:25:35.492Z,78.34
2018-07-01T04:26:36.892Z,78.05
2018-07-01T04:27:38.273Z,77.38
2018-07-01T04:28:39.662Z,77.57
2018-07-01T04:29:41.055Z,77.48
2018-07-01T04:30:42.438Z,77.48
2018-07-01T04:31:43.828Z,77.51
2018-07-01T04:32:45.217Z,76.84
2018-07-01T04:33:46.613Z,76.75
2018-07-01T04:34:47.999Z,76.18
2018-07-01T04:35:49.395Z,75.70
2018-07-01T04:36:50.779Z,75.41
2018-07-01T04:37:52.752Z,75.22
2018-07-01T04:38:53.508Z,75.98
2018-07-01T04:39:54.893Z,75.22
2018-07-01T04:40:56.956Z,74.87
2018-07-01T04:41:58.303Z,74.49
2018-07-01T04:42:59.691Z,74.20
2018-07-01T04:44:01.091Z,73.82
2018-07-01T04:45:02.471Z,73.28
2018-07-01T04:46:03.867Z,72.80
2018-07-01T04:47:05.265Z,71.66
2018-07-01T04:48:06.650Z,70.44
2018-07-01T04:49:08.097Z,70.44
2018-07-01T04:50:09.445Z,69.68
2018-07-01T04:51:10.842Z,69.96
2018-07-01T04:52:12.234Z,69.77
2018-07-01T04:53:13.621Z,68.66
2018-07-01T04:54:15.020Z,68.95
2018-07-01T04:55:16.494Z,68.56
2018-07-01T04:56:17.806Z,67.63
2018-07-01T04:57:19.199Z,66.29
2018-07-01T04:58:20.594Z,66.13
2018-07-01T04:59:21.992Z,65.94
2018-07-01T05:00:23.388Z,65.36
2018-07-01T05:01:24.788Z,65.14
2018-07-01T05:02:26.241Z,65.94
2018-07-01T05:03:27.572Z,65.91
2018-07-01T05:04:28.964Z,65.81
2018-07-01T05:05:30.355Z,66.03
2018-07-01T05:06:31.741Z,65.84
2018-07-01T05:07:33.136Z,66.29
2018-07-01T05:08:34.527Z,66.23
2018-07-01T05:09:35.915Z,66.33
2018-07-01T05:10:37.317Z,66.03
2018-07-01T05:11:38.705Z,65.94
2018-07-01T05:12:40.097Z,65.27
2018-07-01T05:13:41.483Z,65.36
2018-07-01T05:14:42.879Z,65.56
2018-07-01T05:15:44.271Z,65.27
2018-07-01T05:16:45.666Z,64.50
2018-07-01T05:17:47.055Z,64.50
2018-07-01T05:18:48.442Z,64.98
2018-07-01T05:19:49.849Z,64.79
2018-07-01T05:20:51.240Z,64.72
2018-07-01T05:21:52.642Z,64.31
2018-07-01T05:22:54.023Z,64.34
2018-07-01T05:23:55.426Z,64.34
2018-07-01T05:24:56.814Z,63.67
2018-07-01T05:25:58.720Z,63.48
2018-07-01T05:27:00.110Z,63.38
2018-07-01T05:28:01.517Z,63.96
2018-07-01T05:29:02.905Z,64.05
2018-07-01T05:30:04.298Z,63.67
2018-07-01T05:31:05.692Z,63.57
2018-07-01T05:32:07.676Z,63.57
2018-07-01T05:33:09.079Z,63.28
2018-07-01T05:34:10.475Z,63.22
2018-07-01T05:35:11.875Z,63.12
2018-07-01T05:36:13.261Z,63.12
2018-07-01T05:37:14.696Z,62.74
2018-07-01T05:38:16.062Z,62.26
2018-07-01T05:39:17.452Z,62.16
2018-07-01T05:40:18.842Z,61.33
2018-07-01T05:41:20.241Z,60.27
2018-07-01T05:42:21.647Z,59.08
2018-07-01T05:43:23.047Z,56.60
2018-07-01T05:44:24.447Z,54.83
2018-07-01T05:45:25.840Z,53.05
2018-07-01T05:46:27.244Z,50.69
2018-07-01T05:47:28.639Z,49.46
2018-07-01T05:48:30.037Z,47.67
2018-07-01T05:49:31.446Z,45.57
2018-07-01T05:50:32.829Z,44.33
2018-07-01T05:51:34.241Z,42.90
2018-07-01T05:52:35.638Z,42.92
2018-07-01T05:53:37.042Z,42.61
2018-07-01T05:54:38.436Z,42.24
2018-07-01T05:55:39.840Z,41.68
2018-07-01T05:56:41.244Z,41.58
2018-07-01T05:57:42.638Z,41.58
2018-07-01T05:58:44.045Z,40.69
2018-07-01T05:59:45.444Z,40.79
2018-07-01T06:00:46.848Z,41.45
2018-07-01T06:01:48.247Z,42.10
2018-07-01T06:02:49.652Z,42.78
2018-07-01T06:03:51.055Z,43.05
2018-07-01T06:04:52.459Z,44.09
2018-07-01T06:05:53.860Z,43.99
2018-07-01T06:06:55.270Z,45.42
2018-07-01T06:07:56.677Z,46.85
2018-07-01T06:08:58.092Z,47.31
2018-07-01T06:09:59.499Z,47.22
2018-07-01T06:11:00.896Z,47.50
2018-07-01T06:12:02.306Z,47.96
2018-07-01T06:13:03.715Z,47.77
2018-07-01T06:14:05.134Z,48.37
2018-07-01T06:15:06.523Z,48.57
2018-07-01T06:16:07.928Z,47.81
2018-07-01T06:17:09.332Z,47.43
2018-07-01T06:18:10.738Z,45.98
2018-07-01T06:19:12.144Z,45.81
2018-07-01T06:20:13.551Z,45.21
2018-07-01T06:21:14.974Z,45.52
2018-07-01T06:22:16.407Z,44.46
2018-07-01T06:23:17.774Z,44.65
2018-07-01T06:24:19.176Z,45.04
2018-07-01T06:25:20.598Z,44.46
2018-07-01T06:26:22.005Z,44.96
2018-07-01T06:27:23.416Z,44.38
2018-07-01T06:28:24.811Z,43.99
2018-07-01T06:29:26.223Z,44.09
2018-07-01T06:30:27.637Z,43.34
2018-07-01T06:31:29.037Z,42.86
2018-07-01T06:32:30.452Z,43.05
2018-07-01T06:33:31.851Z,43.63
2018-07-01T06:34:33.261Z,43.34
2018-07-01T06:35:34.673Z,43.24
2018-07-01T06:36:36.078Z,43.61
2018-07-01T06:37:37.469Z,42.74
2018-07-01T06:38:38.874Z,43.61
2018-07-01T06:39:40.286Z,44.19
2018-07-01T06:40:41.683Z,44.09
2018-07-01T06:41:43.083Z,43.54
2018-07-01T06:42:44.499Z,43.44
2018-07-01T06:43:45.908Z,42.93
2018-07-01T06:44:47.312Z,43.71
2018-07-01T06:45:48.716Z,44.15
2018-07-01T06:46:50.116Z,45.48
2018-07-01T06:47:51.512Z,45.28
2018-07-01T06:48:52.908Z,46.13
2018-07-01T06:49:54.310Z,46.61
2018-07-01T06:50:55.699Z,47.58
2018-07-01T06:51:57.104Z,47.55
2018-07-01T06:52:58.510Z,46.97
2018-07-01T06:54:00.671Z,47.67
2018-07-01T06:55:02.081Z,47.09
2018-07-01T06:56:03.488Z,46.71
2018-07-01T06:57:04.904Z,47.58
2018-07-01T06:58:06.290Z,46.90
2018-07-01T06:59:07.693Z,47.77
2018-07-01T07:00:09.095Z,47.58
2018-07-01T07:01:10.488Z,46.90
2018-07-01T07:02:11.885Z,47.19
2018-07-01T07:03:13.279Z,46.69
2018-07-01T07:04:14.693Z,47.14
2018-07-01T07:05:16.092Z,48.49
2018-07-01T07:06:18.112Z,48.61
2018-07-01T07:07:19.515Z,49.29
2018-07-01T07:08:20.910Z,48.93
2018-07-01T07:09:22.304Z,49.02
2018-07-01T07:10:23.709Z,47.99
2018-07-01T07:11:25.107Z,47.72
2018-07-01T07:12:26.508Z,47.53
2018-07-01T07:13:27.909Z,47.16
2018-07-01T07:14:29.304Z,44.73
2018-07-01T07:15:30.705Z,45.00
2018-07-01T07:16:32.104Z,45.09
2018-07-01T07:17:33.504Z,44.97
2018-07-01T07:18:34.906Z,45.36
2018-07-01T07:19:36.302Z,45.04
2018-07-01T07:20:37.702Z,45.53
2018-07-01T07:21:39.098Z,46.61
2018-07-01T07:22:40.494Z,46.51
2018-07-01T07:23:41.893Z,45.26
2018-07-01T07:24:43.299Z,45.45
2018-07-01T07:25:44.693Z,45.75
2018-07-01T07:26:46.090Z,46.06
2018-07-01T07:27:47.493Z,45.86
2018-07-01T07:28:48.894Z,45.48
2018-07-01T07:29:50.290Z,45.67
2018-07-01T07:30:51.692Z,45.18
2018-07-01T07:31:53.133Z,46.64
2018-07-01T07:32:54.483Z,46.44
2018-07-01T07:33:55.890Z,46.25
2018-07-01T07:34:57.284Z,45.31
2018-07-01T07:35:58.675Z,44.92
2018-07-01T07:37:00.076Z,45.98
2018-07-01T07:38:01.479Z,45.67
2018-07-01T07:39:02.873Z,45.18
2018-07-01T07:40:04.268Z,44.90
2018-07-01T07:41:05.673Z,44.51
2018-07-01T07:42:07.073Z,46.33
2018-07-01T07:43:08.498Z,46.30
2018-07-01T07:44:09.869Z,46.69
2018-07-01T07:45:11.285Z,47.34
2018-07-01T07:46:12.662Z,47.82
2018-07-01T07:47:14.052Z,47.82
2018-07-01T07:48:15.444Z,47.41
2018-07-01T07:49:16.840Z,46.86
2018-07-01T07:50:18.238Z,47.34
2018-07-01T07:51:19.643Z,47.85
2018-07-01T07:52:21.079Z,47.65
2018-07-01T07:53:22.398Z,45.45
2018-07-01T07:54:23.816Z,44.97
2018-07-01T07:55:25.217Z,43.81
2018-07-01T07:56:26.618Z,42.36
2018-07-01T07:57:28.010Z,43.43
2018-07-01T07:58:29.414Z,42.87
2018-07-01T07:59:30.812Z,42.39
2018-07-01T08:00:32.206Z,41.86
2018-07-01T08:01:33.603Z,42.52
2018-07-01T08:02:34.993Z,42.80
2018-07-01T08:03:36.394Z,42.69
2018-07-01T08:04:37.794Z,43.05
2018-07-01T08:05:39.190Z,44.98
2018-07-01T08:06:40.581Z,45.00
2018-07-01T08:07:41.986Z,45.70
2018-07-01T08:08:43.383Z,44.73
2018-07-01T08:09:44.786Z,44.83
2018-07-01T08:10:46.180Z,45.12
2018-07-01T08:11:47.581Z,44.90
2018-07-01T08:12:49.055Z,45.00
2018-07-01T08:13:50.382Z,45.29
2018-07-01T08:14:51.772Z,46.23
2018-07-01T08:15:53.180Z,47.10
2018-07-01T08:16:54.580Z,47.58
2018-07-01T08:17:55.978Z,47.19
2018-07-01T08:18:57.369Z,47.58
2018-07-01T08:19:58.756Z,47.17
2018-07-01T08:21:00.159Z,47.56
2018-07-01T08:22:01.581Z,47.56
2018-07-01T08:23:02.951Z,48.06
2018-07-01T08:24:04.350Z,47.49
2018-07-01T08:25:05.745Z,45.48
2018-07-01T08:26:07.133Z,45.10
2018-07-01T08:27:08.527Z,44.90
2018-07-01T08:28:09.923Z,45.41
2018-07-01T08:29:11.311Z,44.35
2018-07-01T08:30:12.705Z,43.89
2018-07-01T08:31:14.100Z,42.73
2018-07-01T08:32:15.497Z,40.90
2018-07-01T08:33:16.906Z,41.48
2018-07-01T08:34:18.303Z,40.82
2018-07-01T08:35:19.696Z,41.40
2018-07-01T08:36:21.090Z,41.52
2018-07-01T08:37:22.487Z,41.44
2018-07-01T08:38:23.882Z,40.47
2018-07-01T08:39:25.240Z,38.93
2018-07-01T08:40:26.633Z,38.93
2018-07-01T08:41:28.020Z,39.92
2018-07-01T08:42:29.422Z,37.98
2018-07-01T08:43:30.821Z,36.53
2018-07-01T08:44:32.224Z,35.72
2018-07-01T08:45:33.616Z,36.69
2018-07-01T08:46:35.019Z,38.35
2018-07-01T08:47:36.414Z,37.77
2018-07-01T08:48:37.810Z,37.38
2018-07-01T08:49:39.200Z,36.69
2018-07-01T08:50:40.589Z,36.11
2018-07-01T08:51:42.002Z,36.50
2018-07-01T08:52:43.423Z,37.63
2018-07-01T08:53:44.789Z,37.93
2018-07-01T08:54:46.177Z,37.13
2018-07-01T08:55:47.579Z,38.39
2018-07-01T08:56:48.969Z,39.26
2018-07-01T08:57:50.358Z,38.12
2018-07-01T08:58:51.755Z,38.31
2018-07-01T08:59:53.146Z,37.25
2018-07-01T09:00:54.546Z,37.45
2018-07-01T09:01:55.949Z,37.35
2018-07-01T09:02:57.340Z,37.43
2018-07-01T09:03:58.739Z,38.68
2018-07-01T09:05:00.137Z,38.39
2018-07-01T09:06:01.526Z,39.57
2018-07-01T09:07:02.928Z,39.47
2018-07-01T09:08:04.328Z,39.09
2018-07-01T09:09:05.726Z,38.97
2018-07-01T09:10:07.130Z,39.37
2018-07-01T09:11:08.526Z,39.16
2018-07-01T09:12:09.932Z,39.74
2018-07-01T09:13:11.330Z,40.61
2018-07-01T09:14:12.733Z,41.09
2018-07-01T09:15:14.129Z,41.48
2018-07-01T09:16:15.529Z,41.84
2018-07-01T09:17:17.007Z,42.15
2018-07-01T09:18:18.275Z,41.38
2018-07-01T09:19:19.667Z,41.48
2018-07-01T09:20:21.065Z,41.36
2018-07-01T09:21:22.463Z,40.78
2018-07-01T09:22:23.858Z,41.63
2018-07-01T09:23:25.303Z,42.30
2018-07-01T09:24:26.635Z,42.49
2018-07-01T09:25:28.039Z,42.49
2018-07-01T09:26:29.440Z,43.17
2018-07-01T09:27:30.845Z,42.79
2018-07-01T09:28:32.249Z,42.79
2018-07-01T09:29:33.639Z,43.17
2018-07-01T09:30:35.036Z,42.86
2018-07-01T09:31:36.421Z,43.24
2018-07-01T09:32:37.814Z,43.73
2018-07-01T09:33:39.216Z,43.63
2018-07-01T09:34:40.664Z,43.54
2018-07-01T09:35:41.971Z,43.92
2018-07-01T09:36:43.359Z,43.63
2018-07-01T09:37:44.764Z,44.31
2018-07-01T09:38:46.171Z,44.69
2018-07-01T09:39:47.576Z,43.94
2018-07-01T09:40:48.974Z,44.42
2018-07-01T09:41:50.377Z,44.13
2018-07-01T09:42:51.771Z,44.15
2018-07-01T09:43:53.130Z,44.15
2018-07-01T09:44:54.525Z,42.90
2018-07-01T09:45:55.925Z,42.42
2018-07-01T09:46:57.322Z,42.32
2018-07-01T09:47:58.711Z,42.13
2018-07-01T09:49:00.107Z,43.38
2018-07-01T09:50:01.507Z,43.00
2018-07-01T09:51:02.900Z,42.32
2018-07-01T09:52:04.297Z,43.00
2018-07-01T09:53:05.703Z,42.44
2018-07-01T09:54:08.090Z,42.05
2018-07-01T09:55:09.490Z,41.27
2018-07-01T09:56:10.891Z,42.03
2018-07-01T09:57:12.280Z,42.23
2018-07-01T09:58:13.677Z,42.80
2018-07-01T09:59:15.072Z,42.42
2018-07-01T10:00:16.471Z,42.71
2018-07-01T10:01:17.871Z,42.44
2018-07-01T10:02:19.275Z,42.05
2018-07-01T10:03:20.675Z,41.50
2018-07-01T10:04:22.061Z,41.11
2018-07-01T10:05:23.461Z,40.53
2018-07-01T10:06:24.854Z,40.63
2018-07-01T10:07:26.251Z,40.34
2018-07-01T10:08:28.548Z,40.63
2018-07-01T10:09:29.946Z,40.34
2018-07-01T10:10:31.306Z,40.53
2018-07-01T10:11:32.707Z,40.82
2018-07-01T10:12:34.105Z,40.63
2018-07-01T10:13:35.505Z,40.82
2018-07-01T10:14:36.890Z,40.92
2018-07-01T10:15:38.242Z,41.50
2018-07-01T10:16:39.657Z,42.08
2018-07-01T10:17:41.045Z,41.78
2018-07-01T10:18:42.461Z,42.08
2018-07-01T10:19:43.851Z,41.78
2018-07-01T10:20:45.253Z,42.08
2018-07-01T10:21:46.611Z,43.33
2018-07-01T10:22:48.020Z,42.27
2018-07-01T10:23:49.422Z,42.27
2018-07-01T10:24:50.816Z,41.78
2018-07-01T10:25:52.212Z,41.71
2018-07-01T10:26:53.606Z,40.92
2018-07-01T10:27:55.006Z,41.78
2018-07-01T10:28:56.410Z,41.50
2018-07-01T10:29:57.818Z,41.60
2018-07-01T10:30:59.207Z,42.19
2018-07-01T10:32:00.609Z,41.42
2018-07-01T10:33:02.015Z,41.50
2018-07-01T10:34:03.407Z,41.98
2018-07-01T10:35:04.808Z,42.36
2018-07-01T10:36:06.199Z,43.52
2018-07-01T10:37:07.543Z,44.01
2018-07-01T10:38:08.942Z,43.91
2018-07-01T10:39:10.338Z,42.87
2018-07-01T10:40:11.792Z,42.18
2018-07-01T10:41:13.097Z,42.56
2018-07-01T10:42:14.495Z,42.94
2018-07-01T10:43:15.897Z,43.52
2018-07-01T10:44:17.293Z,43.72
2018-07-01T10:45:18.689Z,44.29
2018-07-01T10:46:20.085Z,43.60
2018-07-01T10:47:21.482Z,43.12
2018-07-01T10:48:22.879Z,43.89
2018-07-01T10:49:24.281Z,44.08
2018-07-01T10:50:25.663Z,44.76
2018-07-01T10:51:27.106Z,43.21
2018-07-01T10:52:28.460Z,43.21
2018-07-01T10:53:29.844Z,43.02
2018-07-01T10:54:31.246Z,43.70
2018-07-01T10:55:32.605Z,42.73
2018-07-01T10:56:34.015Z,42.63
2018-07-01T10:57:35.435Z,42.83
2018-07-01T10:58:36.802Z,42.73
2018-07-01T10:59:38.184Z,42.93
2018-07-01T11:00:39.586Z,43.70
2018-07-01T11:01:40.970Z,43.62
2018-07-01T11:02:42.364Z,42.75
2018-07-01T11:03:43.766Z,42.85
2018-07-01T11:04:45.165Z,42.94
2018-07-01T11:05:46.576Z,42.94
2018-07-01T11:06:47.966Z,42.18
2018-07-01T11:07:49.357Z,42.75
2018-07-01T11:08:50.740Z,43.24
2018-07-01T11:09:52.142Z,44.49
2018-07-01T11:10:53.539Z,42.77
2018-07-01T11:11:54.957Z,42.87
2018-07-01T11:12:56.357Z,43.16
2018-07-01T11:13:57.754Z,42.97
2018-07-01T11:14:59.153Z,43.06
2018-07-01T11:16:00.542Z,42.87
2018-07-01T11:17:01.939Z,42.58
2018-07-01T11:18:03.333Z,41.81
2018-07-01T11:19:04.731Z,42.29
2018-07-01T11:20:06.134Z,41.91
2018-07-01T11:21:07.546Z,42.48
2018-07-01T11:22:08.946Z,42.39
2018-07-01T11:23:10.338Z,41.81
2018-07-01T11:24:11.737Z,42.19
2018-07-01T11:25:13.146Z,42.87
2018-07-01T11:26:14.545Z,42.48
2018-07-01T11:27:15.989Z,42.27
2018-07-01T11:28:17.352Z,42.46
2018-07-01T11:29:18.745Z,42.93
2018-07-01T11:30:20.146Z,43.77
2018-07-01T11:31:21.548Z,43.96
2018-07-01T11:32:22.956Z,45.03
2018-07-01T11:33:24.348Z,45.03
2018-07-01T11:34:25.741Z,45.21
2018-07-01T11:35:27.138Z,45.21
2018-07-01T11:36:28.535Z,45.41
2018-07-01T11:37:29.937Z,46.08
2018-07-01T11:38:31.338Z,45.79
2018-07-01T11:39:32.729Z,45.53
2018-07-01T11:40:34.121Z,45.34
2018-07-01T11:41:35.522Z,46.49
2018-07-01T11:42:36.920Z,45.14
2018-07-01T11:43:38.317Z,45.43
2018-07-01T11:44:39.745Z,45.72
2018-07-01T11:45:41.067Z,45.24
2018-07-01T11:46:42.475Z,46.37
2018-07-01T11:47:43.876Z,46.69
2018-07-01T11:48:45.265Z,46.40
2018-07-01T11:49:46.661Z,45.26
2018-07-01T11:50:48.052Z,44.42
2018-07-01T11:51:49.454Z,43.76
2018-07-01T11:52:50.843Z,42.43
2018-07-01T11:53:52.245Z,41.97
2018-07-01T11:54:53.640Z,42.33
2018-07-01T11:55:55.042Z,42.65
2018-07-01T11:56:56.436Z,42.45
2018-07-01T11:57:57.850Z,42.00
2018-07-01T11:58:59.252Z,40.48
2018-07-01T12:00:00.679Z,38.68
2018-07-01T12:01:02.051Z,36.87
2018-07-01T12:02:03.461Z,35.45
2018-07-01T12:03:04.851Z,34.30
2018-07-01T12:04:06.253Z,33.65
2018-07-01T12:05:16.665Z,33.09
2018-07-01T12:06:09.069Z,32.31
2018-07-01T12:07:10.459Z,32.03
2018-07-01T12:08:11.857Z,31.54
2018-07-01T12:09:13.262Z,32.10
2018-07-01T12:10:14.668Z,32.11
2018-07-01T12:11:16.059Z,32.31
2018-07-01T12:12:17.469Z,31.73
2018-07-01T12:13:18.887Z,32.78
2018-07-01T12:14:20.266Z,33.31
2018-07-01T12:15:21.662Z,34.95
2018-07-01T12:16:23.063Z,36.35
2018-07-01T12:17:24.456Z,37.69
2018-07-01T12:18:25.851Z,38.15
2018-07-01T12:19:27.258Z,39.61
2018-07-01T12:20:28.661Z,39.59
2018-07-01T12:21:30.058Z,40.56
2018-07-01T12:22:31.464Z,40.38
2018-07-01T12:23:32.942Z,40.69
2018-07-01T12:24:34.217Z,38.56
2018-07-01T12:25:35.622Z,37.81
2018-07-01T12:26:37.009Z,37.92
2018-07-01T12:27:38.416Z,37.24
2018-07-01T12:28:39.828Z,37.51
2018-07-01T12:29:41.200Z,38.66
2018-07-01T12:30:42.599Z,39.14
2018-07-01T12:31:44.003Z,39.03
2018-07-01T12:32:45.411Z,39.03
2018-07-01T12:33:46.792Z,40.07
2018-07-01T12:34:48.262Z,40.07
2018-07-01T12:35:49.597Z,40.34
2018-07-01T12:36:50.998Z,39.94
2018-07-01T12:37:52.404Z,40.42
2018-07-01T12:38:53.799Z,40.52
2018-07-01T12:39:55.212Z,40.61
2018-07-01T12:40:56.605Z,40.81
2018-07-01T12:41:58.062Z,40.03
2018-07-01T12:42:59.399Z,40.42
2018-07-01T12:44:00.795Z,40.71
2018-07-01T12:45:02.188Z,40.71
2018-07-01T12:46:03.585Z,41.60
2018-07-01T12:47:04.980Z,40.83
2018-07-01T12:48:06.403Z,40.38
2018-07-01T12:49:07.783Z,39.72
2018-07-01T12:50:09.173Z,38.95
2018-07-01T12:51:10.559Z,38.56
2018-07-01T12:52:11.952Z,37.98
2018-07-01T12:53:13.343Z,38.54
2018-07-01T12:54:14.753Z,38.35
2018-07-01T12:55:16.144Z,38.45
2018-07-01T12:56:17.588Z,39.01
2018-07-01T12:57:18.940Z,40.15
2018-07-01T12:58:20.342Z,40.23
2018-07-01T12:59:22.373Z,40.71
2018-07-01T13:00:23.779Z,40.20
2018-07-01T13:01:25.177Z,40.78
2018-07-01T13:02:26.599Z,40.59
2018-07-01T13:03:27.969Z,40.88
2018-07-01T13:04:29.364Z,40.98
2018-07-01T13:05:30.763Z,40.98
2018-07-01T13:06:32.154Z,41.05
2018-07-01T13:07:33.543Z,42.02
2018-07-01T13:08:34.957Z,42.10
2018-07-01T13:09:36.345Z,42.46
2018-07-01T13:10:37.743Z,42.94